Time;durP1;ratioP1;P1;durP2;ratioP2;P2;SDS_P1;SDS_P2;PMS_P1;PMS_P2;Temp;Humidity;BMP_temperature;BMP_pressure;BME280_temperature;BME280_humidity;BME280_pressure;Samples;Min_cycle;Max_cycle;Signal;HPM_P1;HPM_P2
2022/04/22 00:02:05;;;;;;;;;30.00;29.33;15.40;99.90;;;;;;5117540;28;8763;-60
2022/04/22 00:04:31;;;;;;;;;28.00;26.75;15.60;99.90;;;;;;5117445;28;8858;-59
2022/04/22 00:06:57;;;;;;;;;26.00;26.00;16.10;99.90;;;;;;5117401;28;8786;-60
2022/04/22 00:09:22;;;;;;;;;30.75;30.00;16.40;99.90;;;;;;5117361;28;8774;-60
2022/04/22 00:11:48;;;;;;;;;32.50;31.50;15.30;99.90;;;;;;5117631;28;8755;-58
2022/04/22 00:14:14;;;;;;;;;32.25;29.75;14.90;99.90;;;;;;5110910;28;8768;-56
2022/04/22 00:16:40;;;;;;;;;28.00;28.00;15.30;99.90;;;;;;5105494;28;8795;-59
2022/04/22 00:19:06;;;;;;;;;34.33;31.33;15.50;99.90;;;;;;5097621;27;8764;-59
2022/04/22 00:21:32;;;;;;;;;32.67;30.67;15.10;99.90;;;;;;5118583;27;8772;-59
2022/04/22 00:23:58;;;;;;;;;30.67;29.33;14.70;99.90;;;;;;5129537;27;8754;-58
2022/04/22 00:26:24;;;;;;;;;33.00;32.00;14.50;99.90;;;;;;5107506;28;8857;-57
2022/04/22 00:28:49;;;;;;;;;32.75;30.00;14.30;99.90;;;;;;5116978;28;8809;-56
2022/04/22 00:31:15;;;;;;;;;28.00;27.00;14.10;99.90;;;;;;5116990;28;8749;-56
2022/04/22 00:33:44;;;;;;;;;29.00;28.67;14.10;99.90;;;;;;5116821;28;8913;-56
2022/04/22 00:36:10;;;;;;;;;32.33;30.00;14.00;99.90;;;;;;5110075;28;8786;-56
2022/04/22 00:38:36;;;;;;;;;30.00;26.67;14.30;99.90;;;;;;5102027;28;8854;-57
2022/04/22 00:41:02;;;;;;;;;28.67;28.00;14.30;99.90;;;;;;5101839;28;8780;-58
2022/04/22 00:43:28;;;;;;;;;27.00;25.33;14.10;99.90;;;;;;5116682;28;8774;-59
2022/04/22 00:45:55;;;;;;;;;23.67;22.33;14.00;99.90;;;;;;5116678;28;8757;-59
2022/04/22 00:48:22;;;;;;;;;28.00;28.00;13.90;99.90;;;;;;5116786;27;8874;-59
2022/04/22 00:50:48;;;;;;;;;27.00;27.00;14.00;99.90;;;;;;5096350;28;8782;-59
2022/04/22 00:53:15;;;;;;;;;31.33;26.00;14.20;99.90;;;;;;5096159;28;8775;-59
2022/04/22 00:55:43;;;;;;;;;30.00;30.00;14.00;99.90;;;;;;5096307;28;8865;-59
2022/04/22 00:58:09;;;;;;;;;24.33;24.33;14.20;99.90;;;;;;5096318;28;8764;-59
2022/04/22 01:00:36;;;;;;;;;25.00;24.00;14.60;99.90;;;;;;5095945;28;8792;-60
2022/04/22 01:03:03;;;;;;;;;28.00;26.67;14.40;99.90;;;;;;5096054;28;8779;-59
2022/04/22 01:10:59;;;;;;;;;21.33;21.00;14.90;99.90;;;;;;5095740;28;8744;-59
2022/04/22 01:13:25;;;;;;;;;24.67;24.00;15.30;99.90;;;;;;5095978;28;9487;-59
2022/04/22 01:15:51;;;;;;;;;29.33;25.00;15.40;99.90;;;;;;5095924;28;8776;-60
2022/04/22 01:18:17;;;;;;;;;30.00;27.67;15.40;99.90;;;;;;5095856;28;8768;-57
2022/04/22 01:20:43;;;;;;;;;31.67;28.00;15.50;99.90;;;;;;5095655;28;8862;-57
2022/04/22 01:23:09;;;;;;;;;26.00;26.00;15.00;99.90;;;;;;5095524;28;8795;-60
2022/04/22 01:25:35;;;;;;;;;29.00;29.00;14.70;99.90;;;;;;5077654;28;8756;-57
2022/04/22 01:28:02;;;;;;;;;33.00;29.33;15.10;99.90;;;;;;5095386;28;8871;-57
2022/04/22 01:30:28;;;;;;;;;28.67;28.67;15.00;99.90;;;;;;5095361;28;8779;-57
2022/04/22 01:32:56;;;;;;;;;22.33;22.33;14.60;99.90;;;;;;5095458;28;8940;-57
2022/04/22 01:35:24;;;;;;;;;33.33;30.33;14.30;99.90;;;;;;5095380;28;8818;-60
2022/04/22 01:37:50;;;;;;;;;26.00;23.00;14.30;99.90;;;;;;5095602;28;9417;-57
2022/04/22 01:40:16;;;;;;;;;29.67;29.00;14.10;99.90;;;;;;5112106;27;8757;-59
2022/04/22 01:42:42;;;;;;;;;31.00;30.00;13.90;99.90;;;;;;5115564;28;8778;-58
2022/04/22 01:45:10;;;;;;;;;28.33;27.67;14.00;99.90;;;;;;5115763;28;8769;-58
2022/04/22 01:47:35;;;;;;;;;30.67;30.67;14.60;99.90;;;;;;5115393;28;8801;-58
2022/04/22 01:50:02;;;;;;;;;31.67;31.00;14.90;99.90;;;;;;5115432;28;8784;-58
2022/04/22 01:52:29;;;;;;;;;31.67;30.00;14.60;99.90;;;;;;5115603;28;9415;-58
2022/04/22 01:54:56;;;;;;;;;31.50;30.00;14.70;99.90;;;;;;5115646;28;9404;-58
2022/04/22 01:57:22;;;;;;;;;34.00;28.67;14.60;99.90;;;;;;5115374;28;8773;-58
2022/04/22 01:59:48;;;;;;;;;29.67;29.67;14.70;99.90;;;;;;5114747;28;8761;-58
2022/04/22 02:02:18;;;;;;;;;38.50;33.00;14.50;99.90;;;;;;5115495;28;8788;-58
2022/04/22 02:04:45;;;;;;;;;34.33;31.00;15.20;99.90;;;;;;5115165;28;8762;-58
2022/04/22 02:07:11;;;;;;;;;37.00;33.00;15.40;99.90;;;;;;5115099;28;8823;-58
2022/04/22 02:09:37;;;;;;;;;33.33;30.67;15.60;99.90;;;;;;5115111;28;8785;-58
2022/04/22 02:12:04;;;;;;;;;36.33;32.67;15.40;99.90;;;;;;5115132;28;8761;-59
2022/04/22 02:14:30;;;;;;;;;33.00;28.67;14.90;99.90;;;;;;5115131;28;9165;-58
2022/04/22 02:16:56;;;;;;;;;30.67;29.67;14.90;99.90;;;;;;5115101;28;8770;-57
2022/04/22 02:19:22;;;;;;;;;27.33;26.00;14.50;99.90;;;;;;5115292;28;9473;-57
2022/04/22 02:21:51;;;;;;;;;17.00;15.33;14.00;99.90;;;;;;5115071;28;8785;-58
2022/04/22 02:24:17;;;;;;;;;34.67;31.00;13.80;99.90;;;;;;5115238;28;8769;-58
2022/04/22 02:29:28;;;;;;;;;24.00;23.67;14.20;99.90;;;;;;5115064;28;8762;-58
2022/04/22 02:31:53;;;;;;;;;31.33;27.33;14.30;99.90;;;;;;5115142;28;8776;-58
2022/04/22 02:34:25;;;;;;;;;32.00;28.67;14.40;99.90;;;;;;5115068;28;8893;-58
2022/04/22 02:36:51;;;;;;;;;27.33;27.33;14.30;99.90;;;;;;5115066;28;8774;-58
2022/04/22 02:39:18;;;;;;;;;26.67;26.00;14.00;99.90;;;;;;5115064;28;8780;-58
2022/04/22 02:47:13;;;;;;;;;33.00;31.00;13.80;99.90;;;;;;5115092;28;8817;-57
2022/04/22 02:49:43;;;;;;;;;34.00;31.00;13.90;99.90;;;;;;5114747;28;8881;-58
2022/04/22 02:52:10;;;;;;;;;34.33;31.67;14.60;99.90;;;;;;5114657;28;8758;-58
2022/04/22 02:54:35;;;;;;;;;31.33;31.33;14.50;99.90;;;;;;5114624;28;9405;-58
2022/04/22 02:57:01;;;;;;;;;31.00;30.33;14.20;99.90;;;;;;5114836;28;8864;-58
2022/04/22 02:59:29;;;;;;;;;26.33;25.33;14.50;99.90;;;;;;5114633;28;8754;-58
2022/04/22 03:01:55;;;;;;;;;29.00;27.67;15.10;99.90;;;;;;5114839;28;8761;-59
2022/04/22 03:04:21;;;;;;;;;35.00;33.67;14.90;99.90;;;;;;5114624;28;8770;-58
2022/04/22 03:06:47;;;;;;;;;32.00;28.67;15.00;99.90;;;;;;5114523;28;8758;-58
2022/04/22 03:09:13;;;;;;;;;35.67;34.33;14.50;99.90;;;;;;5114766;28;8781;-58
2022/04/22 03:11:38;;;;;;;;;33.00;32.00;13.70;99.90;;;;;;5115347;28;8769;-58
2022/04/22 03:14:05;;;;;;;;;18.00;17.33;13.60;99.90;;;;;;5118485;28;8785;-58
2022/04/22 03:16:32;;;;;;;;;31.33;26.00;14.00;99.90;;;;;;5118593;28;8817;-57
2022/04/22 03:18:59;;;;;;;;;35.67;32.67;13.60;99.90;;;;;;5118636;28;8769;-58
2022/04/22 03:21:25;;;;;;;;;37.25;33.25;13.80;99.90;;;;;;5118763;28;8765;-57
2022/04/22 03:23:51;;;;;;;;;31.67;29.33;14.00;99.90;;;;;;5118278;28;8832;-58
2022/04/22 03:26:18;;;;;;;;;34.50;32.00;14.60;99.90;;;;;;5100313;28;8746;-58
2022/04/22 03:28:44;;;;;;;;;36.00;33.00;14.30;99.90;;;;;;5118404;28;9551;-58
2022/04/22 03:31:10;;;;;;;;;36.00;31.33;14.80;99.90;;;;;;5118348;28;8758;-58
2022/04/22 03:33:36;;;;;;;;;33.00;32.67;14.50;99.90;;;;;;5118064;28;8831;-58
2022/04/22 03:36:02;;;;;;;;;30.67;28.33;14.20;99.90;;;;;;5118287;28;8758;-58
2022/04/22 03:38:29;;;;;;;;;32.00;29.67;13.90;99.90;;;;;;5099990;28;9412;-58
2022/04/22 03:40:55;;;;;;;;;33.33;31.00;14.40;99.90;;;;;;5117943;28;8834;-57
2022/04/22 03:43:23;;;;;;;;;32.00;30.67;14.30;99.90;;;;;;5117910;28;8785;-58
2022/04/22 03:45:49;;;;;;;;;35.25;33.25;14.40;99.90;;;;;;5117722;28;8808;-58
2022/04/22 03:48:15;;;;;;;;;36.75;33.75;14.40;99.90;;;;;;5117764;28;8805;-58
2022/04/22 03:50:41;;;;;;;;;38.00;33.25;14.80;99.90;;;;;;5117786;28;8786;-58
2022/04/22 03:53:14;;;;;;;;;31.00;29.50;15.20;99.90;;;;;;5117730;28;8769;-58
2022/04/22 03:55:41;;;;;;;;;30.00;29.00;15.00;99.90;;;;;;5117826;28;8772;-57
2022/04/22 03:58:13;;;;;;;;;37.75;33.75;15.00;99.90;;;;;;5117866;28;8769;-57
2022/04/22 04:00:48;;;;;;;;;37.75;32.75;14.60;99.90;;;;;;5117895;28;8778;-57
2022/04/22 04:03:19;;;;;;;;;32.75;30.50;14.50;99.90;;;;;;5117822;28;8758;-58
2022/04/22 04:05:50;;;;;;;;;37.25;34.00;13.80;99.90;;;;;;5117553;28;8770;-58
2022/04/22 04:08:24;;;;;;;;;37.50;35.50;13.60;99.90;;;;;;5117410;28;8875;-57
2022/04/22 04:16:21;;;;;;;;;40.50;35.00;13.60;99.90;;;;;;5117454;28;8782;-58
2022/04/22 04:18:46;;;;;;;;;41.50;35.00;13.80;99.90;;;;;;5117538;28;8858;-57
2022/04/22 04:23:57;;;;;;;;;42.50;36.25;13.80;99.90;;;;;;5116759;28;8789;-57
2022/04/22 04:26:24;;;;;;;;;39.00;35.50;13.90;99.90;;;;;;5117270;28;8891;-58
2022/04/22 04:28:51;;;;;;;;;36.00;34.00;13.90;99.90;;;;;;5117077;28;8805;-58
2022/04/22 04:31:18;;;;;;;;;39.50;35.50;14.10;99.90;;;;;;5117335;28;8757;-58
2022/04/22 04:33:43;;;;;;;;;41.00;35.25;13.80;99.90;;;;;;5117085;28;8753;-58
2022/04/22 04:36:10;;;;;;;;;39.50;34.25;14.00;99.90;;;;;;5116976;28;8837;-58
2022/04/22 04:38:41;;;;;;;;;41.75;37.00;14.80;99.90;;;;;;5117162;28;8849;-58
2022/04/22 04:41:08;;;;;;;;;41.50;35.00;14.60;99.90;;;;;;5117202;28;8773;-58
2022/04/22 04:43:35;;;;;;;;;43.50;37.50;14.60;99.90;;;;;;5116955;28;8888;-58
2022/04/22 04:46:02;;;;;;;;;42.75;37.00;14.50;99.90;;;;;;5116801;28;8801;-56
2022/04/22 04:48:28;;;;;;;;;49.00;41.50;14.80;99.90;;;;;;5116544;28;8794;-58
2022/04/22 04:50:55;;;;;;;;;40.50;36.00;15.10;99.90;;;;;;5116572;28;8796;-59
2022/04/22 04:53:23;;;;;;;;;40.50;35.25;15.30;99.90;;;;;;5116593;28;8765;-57
2022/04/22 04:55:50;;;;;;;;;42.25;36.25;15.40;99.90;;;;;;5116541;28;8782;-57
2022/04/22 04:58:16;;;;;;;;;47.75;38.50;14.50;99.90;;;;;;5116543;28;8773;-58
2022/04/22 05:00:45;;;;;;;;;42.50;37.50;14.80;99.90;;;;;;5116372;28;8770;-57
2022/04/22 05:03:11;;;;;;;;;33.50;32.50;14.30;99.90;;;;;;5116440;28;8769;-57
2022/04/22 05:05:37;;;;;;;;;34.50;33.00;14.00;99.90;;;;;;5116602;28;8854;-57
2022/04/22 05:08:04;;;;;;;;;43.67;36.33;14.20;99.90;;;;;;5116204;28;8793;-57
2022/04/22 05:10:31;;;;;;;;;43.25;36.25;14.10;99.90;;;;;;5116550;28;8781;-57
2022/04/22 05:12:59;;;;;;;;;42.50;37.50;14.00;99.90;;;;;;5116484;28;8774;-58
2022/04/22 05:15:26;;;;;;;;;45.25;38.25;14.40;99.90;;;;;;5116020;28;8765;-57
2022/04/22 05:17:53;;;;;;;;;43.50;39.00;14.80;99.90;;;;;;5116331;28;8868;-57
2022/04/22 05:20:20;;;;;;;;;38.00;33.50;14.90;99.90;;;;;;5115999;28;8784;-58
2022/04/22 05:22:47;;;;;;;;;38.25;35.25;14.40;99.90;;;;;;5116022;28;8790;-57
2022/04/22 05:25:14;;;;;;;;;41.25;36.25;14.10;99.90;;;;;;5115959;28;8785;-57
2022/04/22 05:27:41;;;;;;;;;36.25;32.00;14.30;99.90;;;;;;5115926;28;8797;-56
2022/04/22 05:32:52;;;;;;;;;39.75;36.00;14.00;99.90;;;;;;5097842;28;8813;-57
2022/04/22 05:35:23;;;;;;;;;38.25;33.50;14.30;99.90;;;;;;5115182;28;9174;-58
2022/04/22 05:37:53;;;;;;;;;42.75;36.00;14.40;99.90;;;;;;5115772;28;8781;-57
2022/04/22 05:40:23;;;;;;;;;33.50;31.00;14.30;99.90;;;;;;5115929;28;8796;-57
2022/04/22 05:42:51;;;;;;;;;33.33;32.00;14.50;99.90;;;;;;5097655;28;8781;-57
2022/04/22 05:45:17;;;;;;;;;39.00;34.75;14.30;99.90;;;;;;5115472;28;8765;-57
2022/04/22 05:47:44;;;;;;;;;37.75;34.00;14.70;99.90;;;;;;5115394;28;8794;-57
2022/04/22 05:50:11;;;;;;;;;37.00;34.00;14.60;99.90;;;;;;5115752;28;9425;-57
2022/04/22 05:52:39;;;;;;;;;45.00;37.00;14.70;99.90;;;;;;5115421;28;8758;-57
2022/04/22 05:55:15;;;;;;;;;41.50;34.50;14.70;99.90;;;;;;5115438;28;8757;-57
2022/04/22 05:57:42;;;;;;;;;44.75;37.00;14.60;99.90;;;;;;5115403;28;8907;-57
2022/04/22 06:00:10;;;;;;;;;37.50;35.00;14.80;99.90;;;;;;5115256;28;8758;-57
2022/04/22 06:02:37;;;;;;;;;42.25;35.50;15.30;99.90;;;;;;5115548;28;8904;-57
2022/04/22 06:05:03;;;;;;;;;29.67;26.00;15.30;99.90;;;;;;5115523;28;8762;-58
2022/04/22 06:07:28;;;;;;;;;32.33;31.33;15.00;99.90;;;;;;5115130;28;8797;-57
2022/04/22 06:12:39;;;;;;;;;31.00;30.33;15.30;99.90;;;;;;5115158;28;8840;-55
2022/04/22 06:15:05;;;;;;;;;31.33;28.00;15.30;99.90;;;;;;5114857;28;8846;-57
2022/04/22 06:17:31;;;;;;;;;28.00;28.00;15.60;99.90;;;;;;5115384;28;8834;-58
2022/04/22 06:19:58;;;;;;;;;31.33;30.67;15.40;99.90;;;;;;5115207;28;8758;-58
2022/04/22 06:22:27;;;;;;;;;36.00;31.00;15.50;99.90;;;;;;5115006;28;8816;-57
2022/04/22 06:24:55;;;;;;;;;28.67;22.67;15.50;99.90;;;;;;5114956;28;8765;-58
2022/04/22 06:27:28;;;;;;;;;34.00;31.00;15.60;99.90;;;;;;5106747;28;8796;-58
2022/04/22 06:29:55;;;;;;;;;37.00;33.33;15.50;99.90;;;;;;5132691;27;8779;-58
2022/04/22 06:32:22;;;;;;;;;32.67;31.67;15.50;99.90;;;;;;5129748;28;9268;-58
2022/04/22 06:34:52;;;;;;;;;34.50;32.00;15.50;99.90;;;;;;5103743;28;8806;-58
2022/04/22 06:37:19;;;;;;;;;33.33;30.33;16.10;99.90;;;;;;5103956;28;8772;-58
2022/04/22 06:48:00;;;;;;;;;26.33;25.00;16.60;99.90;;;;;;5101712;28;8823;-58
2022/04/22 06:50:26;;;;;;;;;27.67;25.67;16.00;99.90;;;;;;5113075;27;8800;-58
2022/04/22 06:52:52;;;;;;;;;29.67;26.67;15.60;99.90;;;;;;5117631;27;8786;-58
2022/04/22 06:55:18;;;;;;;;;31.33;29.33;15.30;99.90;;;;;;5104366;28;8795;-58
2022/04/22 06:57:49;;;;;;;;;26.67;25.67;15.60;99.90;;;;;;5100998;28;8893;-58
2022/04/22 07:00:18;;;;;;;;;28.33;26.00;15.80;99.90;;;;;;5109622;28;8779;-58
2022/04/22 07:02:47;;;;;;;;;26.00;26.00;15.70;99.90;;;;;;5105120;27;8829;-58
2022/04/22 07:05:13;;;;;;;;;30.33;28.67;16.00;99.90;;;;;;5110680;27;8895;-58
2022/04/22 07:07:40;;;;;;;;;31.33;26.33;16.40;99.90;;;;;;5100261;28;9794;-60
2022/04/22 07:10:06;;;;;;;;;29.33;26.67;16.50;99.90;;;;;;5098084;28;8787;-58
2022/04/22 07:12:33;;;;;;;;;26.33;26.33;16.30;99.90;;;;;;5097969;28;8764;-59
2022/04/22 07:15:08;;;;;;;;;25.33;24.67;16.20;99.90;;;;;;5131800;27;8759;-59
2022/04/22 07:17:35;;;;;;;;;27.00;25.33;16.40;99.90;;;;;;5139565;27;8795;-59
2022/04/22 07:20:05;;;;;;;;;29.67;27.67;16.40;99.90;;;;;;5122154;27;8796;-56
2022/04/22 07:22:32;;;;;;;;;27.33;27.33;16.40;99.90;;;;;;5108408;27;8838;-58
2022/04/22 07:24:58;;;;;;;;;33.67;29.67;16.30;99.90;;;;;;5138854;27;8806;-58
2022/04/22 07:27:28;;;;;;;;;29.67;26.00;16.30;99.90;;;;;;5138754;27;8791;-59
2022/04/22 07:29:55;;;;;;;;;27.67;24.33;16.30;99.90;;;;;;5138980;27;9409;-59
2022/04/22 07:32:21;;;;;;;;;28.00;27.00;16.30;99.90;;;;;;5138648;27;8776;-59
2022/04/22 07:34:47;;;;;;;;;26.33;26.33;16.50;99.90;;;;;;5138925;27;8763;-59
2022/04/22 07:37:14;;;;;;;;;31.33;28.33;16.60;99.90;;;;;;5138562;27;8789;-59
2022/04/22 07:39:40;;;;;;;;;32.33;27.00;16.60;99.90;;;;;;5138632;27;8789;-59
2022/04/22 07:42:14;;;;;;;;;24.33;24.33;16.60;99.90;;;;;;5138525;27;8766;-56
2022/04/22 07:47:29;;;;;;;;;26.33;25.33;16.90;99.90;;;;;;5110037;28;9471;-55
2022/04/22 07:49:55;;;;;;;;;28.33;26.33;17.00;99.90;;;;;;5097896;28;8782;-57
2022/04/22 07:52:20;;;;;;;;;26.33;25.33;17.10;99.90;;;;;;5097269;28;8792;-57
2022/04/22 07:54:46;;;;;;;;;28.67;24.33;17.10;99.90;;;;;;5107409;27;8791;-57
2022/04/22 07:57:12;;;;;;;;;28.67;26.33;17.20;86.00;;;;;;5097827;28;8790;-58
2022/04/22 07:59:39;;;;;;;;;21.33;21.33;17.50;84.70;;;;;;5117054;28;8763;-58
2022/04/22 08:02:05;;;;;;;;;22.00;19.00;17.60;87.00;;;;;;5111450;28;8881;-61
2022/04/22 08:04:31;;;;;;;;;26.67;25.67;17.70;84.40;;;;;;5113840;28;8779;-60
2022/04/22 08:06:57;;;;;;;;;24.00;22.33;17.50;82.40;;;;;;5116013;28;8750;-59
2022/04/22 08:09:22;;;;;;;;;28.00;27.00;17.30;82.90;;;;;;5116052;28;8857;-60
2022/04/22 08:11:48;;;;;;;;;27.67;26.67;17.50;85.50;;;;;;5115977;28;8752;-59
2022/04/22 08:14:14;;;;;;;;;27.67;27.00;17.70;84.40;;;;;;5116035;28;8762;-59
2022/04/22 08:16:40;;;;;;;;;27.00;24.00;17.80;81.90;;;;;;5117109;27;8941;-58
2022/04/22 08:19:06;;;;;;;;;22.00;21.67;18.10;79.60;;;;;;5115446;28;8791;-60
2022/04/22 08:21:35;;;;;;;;;27.33;25.00;17.90;80.40;;;;;;5095566;28;8796;-59
2022/04/22 08:24:02;;;;;;;;;18.00;18.00;17.90;69.00;;;;;;5096591;28;8772;-59
2022/04/22 08:26:31;;;;;;;;;24.00;23.00;17.80;68.10;;;;;;5096665;28;8933;-59
2022/04/22 08:28:57;;;;;;;;;21.67;21.67;17.70;68.60;;;;;;5096375;28;8804;-60
2022/04/22 08:31:22;;;;;;;;;22.33;22.33;17.90;68.50;;;;;;5096448;28;9409;-60
2022/04/22 08:33:49;;;;;;;;;25.33;24.33;18.10;68.30;;;;;;5096786;28;8768;-59
2022/04/22 08:36:15;;;;;;;;;25.33;24.00;18.40;68.00;;;;;;5096308;28;8777;-59
2022/04/22 08:38:41;;;;;;;;;25.33;24.00;18.30;66.00;;;;;;5096312;28;8790;-59
2022/04/22 08:41:10;;;;;;;;;23.33;21.67;18.30;65.50;;;;;;5096664;28;8755;-59
2022/04/22 08:43:37;;;;;;;;;28.33;23.33;18.30;67.20;;;;;;5096442;28;9401;-58
2022/04/22 08:46:03;;;;;;;;;25.00;22.67;18.50;66.40;;;;;;5096144;28;8791;-58
2022/04/22 08:51:19;;;;;;;;;19.33;18.67;18.80;65.50;;;;;;5096258;28;8859;-58
2022/04/22 08:53:50;;;;;;;;;22.33;19.67;18.80;65.30;;;;;;5096136;28;8764;-58
2022/04/22 08:56:17;;;;;;;;;22.00;21.33;19.00;65.70;;;;;;5096319;28;8759;-58
2022/04/22 08:58:43;;;;;;;;;23.33;21.33;19.10;63.30;;;;;;5096329;28;8732;-58
2022/04/22 09:01:09;;;;;;;;;17.00;17.00;19.20;62.30;;;;;;5096092;28;8820;-60
2022/04/22 09:03:35;;;;;;;;;17.33;16.67;19.10;61.90;;;;;;5095753;28;8768;-60
2022/04/22 09:06:01;;;;;;;;;22.00;20.00;19.10;61.90;;;;;;5077849;28;8779;-60
2022/04/22 09:08:28;;;;;;;;;16.33;14.67;19.10;61.20;;;;;;5095607;28;8856;-60
2022/04/22 09:10:54;;;;;;;;;24.00;23.00;19.30;63.20;;;;;;5095786;28;8786;-60
2022/04/22 09:13:25;;;;;;;;;20.00;19.33;19.60;62.30;;;;;;5095678;28;9517;-58
2022/04/22 09:15:51;;;;;;;;;19.33;18.33;19.80;62.70;;;;;;5095921;28;8807;-58
2022/04/22 09:18:16;;;;;;;;;19.67;19.67;19.90;60.60;;;;;;5095823;28;8756;-58
2022/04/22 09:20:43;;;;;;;;;21.00;21.00;20.00;60.00;;;;;;5095745;28;8862;-58
2022/04/22 09:23:41;;;;;;;;;18.33;18.33;20.10;58.60;;;;;;5097200;28;8796;-58
2022/04/22 09:26:22;;;;;;;;;17.33;17.33;20.20;59.60;;;;;;5033375;28;8802;-58
2022/04/22 09:29:02;;;;;;;;;23.00;22.00;20.40;58.80;;;;;;5032875;28;8878;-57
2022/04/22 09:31:28;;;;;;;;;27.00;22.00;20.40;60.50;;;;;;5033100;28;8844;-60
2022/04/22 09:33:57;;;;;;;;;21.33;21.00;20.80;60.10;;;;;;5033112;28;8774;-60
2022/04/22 09:44:58;;;;;;;;;17.33;17.00;21.10;58.70;;;;;;5033009;28;8877;-58
2022/04/22 09:47:29;;;;;;;;;22.00;18.67;21.40;56.60;;;;;;5032595;28;8929;-58
2022/04/22 09:49:56;;;;;;;;;19.00;18.00;21.50;56.90;;;;;;5032815;28;8790;-58
2022/04/22 09:52:30;;;;;;;;;16.67;16.33;21.50;53.70;;;;;;5032636;28;8869;-60
2022/04/22 09:55:01;;;;;;;;;11.67;10.00;21.50;54.00;;;;;;5032574;28;8759;-58
2022/04/22 09:57:28;;;;;;;;;18.00;18.00;21.50;52.00;;;;;;5032691;28;8793;-58
2022/04/22 09:59:54;;;;;;;;;11.67;11.00;21.70;52.30;;;;;;5032516;28;12139;-58
2022/04/22 10:02:23;;;;;;;;;11.33;11.33;21.80;52.30;;;;;;5086412;27;11444;-58
2022/04/22 10:04:54;;;;;;;;;12.33;11.67;22.00;52.40;;;;;;5135274;27;12398;-58
2022/04/22 10:07:23;;;;;;;;;18.00;17.33;21.90;48.50;;;;;;5135276;27;11503;-58
2022/04/22 10:09:50;;;;;;;;;17.00;14.67;22.10;51.20;;;;;;5135832;27;11483;-58
2022/04/22 10:12:21;;;;;;;;;18.00;14.67;22.40;49.10;;;;;;5135832;27;12101;-58
2022/04/22 10:14:50;;;;;;;;;16.00;15.00;22.50;48.90;;;;;;5135458;27;11534;-58
2022/04/22 10:17:18;;;;;;;;;12.67;12.67;22.30;48.00;;;;;;5135723;27;11506;-58
2022/04/22 10:19:44;;;;;;;;;12.67;11.00;22.30;48.30;;;;;;5135305;27;11405;-58
2022/04/22 10:22:10;;;;;;;;;8.00;7.67;22.30;49.20;;;;;;5135014;27;12246;-58
2022/04/22 10:24:37;;;;;;;;;14.33;13.67;22.40;47.70;;;;;;5135471;27;11372;-58
2022/04/22 10:27:07;;;;;;;;;16.67;16.67;22.20;47.70;;;;;;5135641;27;11400;-58
2022/04/22 10:29:34;;;;;;;;;15.00;14.00;22.20;48.20;;;;;;5135297;27;11452;-58
2022/04/22 10:32:04;;;;;;;;;16.67;14.67;22.50;48.30;;;;;;5135267;27;11413;-58
2022/04/22 10:34:55;;;;;;;;;16.00;16.00;22.80;49.10;;;;;;5135483;27;8771;-58
2022/04/22 10:37:24;;;;;;;;;16.00;14.33;22.80;47.70;;;;;;5135341;27;8806;-58
2022/04/22 10:39:52;;;;;;;;;12.33;12.33;22.80;48.70;;;;;;5135217;27;11431;-57
2022/04/22 10:42:17;;;;;;;;;12.00;12.00;22.90;47.80;;;;;;5135189;27;11536;-58
2022/04/22 10:47:41;;;;;;;;;20.33;17.33;23.20;47.00;;;;;;5135655;27;8933;-58
2022/04/22 10:50:26;;;;;;;;;18.67;15.33;23.20;46.10;;;;;;5135382;27;11417;-58
2022/04/22 10:53:03;;;;;;;;;15.67;14.67;23.30;47.80;;;;;;5135132;27;11410;-58
2022/04/22 10:55:37;;;;;;;;;16.67;16.67;23.30;46.80;;;;;;5135077;27;11426;-58
2022/04/22 10:58:12;;;;;;;;;17.67;15.67;23.40;47.00;;;;;;5135029;27;11485;-58
2022/04/22 11:00:43;;;;;;;;;17.33;17.33;23.60;47.80;;;;;;5134991;27;8775;-58
2022/04/22 11:03:31;;;;;;;;;15.33;14.67;23.90;47.80;;;;;;5134832;27;11412;-61
2022/04/22 11:06:01;;;;;;;;;17.33;17.33;24.10;47.70;;;;;;5135008;27;11430;-61
2022/04/22 11:08:30;;;;;;;;;18.00;18.00;24.10;48.00;;;;;;5134806;27;11531;-61
2022/04/22 11:10:56;;;;;;;;;13.50;13.50;24.30;46.70;;;;;;5135194;27;11424;-60
2022/04/22 11:13:31;;;;;;;;;16.67;16.33;24.30;46.90;;;;;;5134921;27;11525;-62
2022/04/22 11:16:29;;;;;;;;;15.25;14.25;24.40;44.90;;;;;;5135208;27;11479;-61
2022/04/22 11:19:19;;;;;;;;;16.67;14.00;24.30;43.20;;;;;;5071613;28;11578;-62
2022/04/22 11:21:58;;;;;;;;;13.50;12.50;24.50;43.00;;;;;;5071341;28;11481;-64
2022/04/22 11:24:29;;;;;;;;;13.67;13.67;24.20;41.10;;;;;;5071751;28;12012;-63
2022/04/22 11:27:28;;;;;;;;;12.50;12.00;24.20;42.30;;;;;;5071542;28;11426;-63
2022/04/22 11:29:54;;;;;;;;;15.67;15.67;24.30;42.80;;;;;;5011495;28;11591;-64
2022/04/22 11:32:21;;;;;;;;;17.50;16.50;24.40;45.60;;;;;;5011858;28;12169;-62
2022/04/22 11:35:16;;;;;;;;;14.00;14.00;24.70;45.10;;;;;;5015187;28;12162;-62
2022/04/22 11:37:42;;;;;;;;;14.67;14.67;25.00;42.60;;;;;;5015322;28;11505;-63
2022/04/22 11:40:09;;;;;;;;;19.50;18.50;25.00;42.10;;;;;;5015059;28;11468;-62
2022/04/22 11:42:44;;;;;;;;;14.25;13.00;25.30;41.40;;;;;;5015039;28;12154;-63
2022/04/22 11:45:14;;;;;;;;;17.50;15.50;25.20;40.30;;;;;;5015235;28;12237;-61
2022/04/22 11:47:41;;;;;;;;;12.75;12.75;25.30;40.50;;;;;;5014957;28;11624;-61
2022/04/22 11:50:08;;;;;;;;;15.25;14.75;25.20;39.20;;;;;;5015195;28;11469;-68
2022/04/22 11:52:34;;;;;;;;;16.00;14.50;25.40;39.00;;;;;;5015137;28;11558;-62
2022/04/22 11:55:01;;;;;;;;;12.25;12.00;25.70;38.00;;;;;;5038262;28;11575;-61
2022/04/22 11:57:27;;;;;;;;;16.00;16.00;25.90;38.40;;;;;;5074789;28;8754;-62
2022/04/22 12:05:35;;;;;;;;;15.50;13.75;25.40;37.20;;;;;;5089229;27;11396;-68
2022/04/22 12:08:04;;;;;;;;;16.67;15.67;25.10;36.80;;;;;;5137866;27;11443;-64
2022/04/22 12:10:29;;;;;;;;;15.75;14.00;25.70;38.40;;;;;;5138104;27;12154;-64
2022/04/22 12:13:01;;;;;;;;;15.25;13.50;25.90;38.00;;;;;;5138072;27;11413;-64
2022/04/22 12:15:27;;;;;;;;;17.25;14.75;25.70;36.80;;;;;;5137890;27;8786;-62
2022/04/22 12:17:53;;;;;;;;;17.00;14.75;26.00;38.00;;;;;;5117841;27;12099;-64
2022/04/22 12:20:19;;;;;;;;;14.00;13.00;26.40;35.90;;;;;;5101883;27;11441;-64
2022/04/22 12:22:48;;;;;;;;;11.50;11.50;26.40;37.00;;;;;;5108065;28;8809;-64
2022/04/22 12:25:16;;;;;;;;;16.00;14.00;25.60;36.10;;;;;;5117179;28;12070;-63
2022/04/22 12:27:43;;;;;;;;;12.00;12.00;25.50;36.60;;;;;;5117135;28;11459;-64
2022/04/22 12:30:11;;;;;;;;;10.75;10.75;25.50;37.10;;;;;;5128656;27;11422;-63
2022/04/22 12:32:38;;;;;;;;;13.00;13.00;25.50;36.70;;;;;;5137418;27;11397;-63
2022/04/22 12:35:16;;;;;;;;;13.25;13.25;26.10;37.60;;;;;;5137606;27;11504;-63
2022/04/22 12:37:50;;;;;;;;;16.25;15.25;26.60;36.40;;;;;;5137548;27;11420;-62
2022/04/22 12:40:19;;;;;;;;;16.75;16.50;26.20;35.10;;;;;;5137622;27;11418;-62
2022/04/22 12:42:45;;;;;;;;;14.00;13.25;26.10;36.30;;;;;;5137257;27;11489;-64
2022/04/22 12:53:47;;;;;;;;;12.75;12.75;26.30;35.00;;;;;;5137191;27;11494;-63
2022/04/22 12:56:13;;;;;;;;;16.75;16.50;25.70;36.00;;;;;;5137079;27;11415;-64
2022/04/22 12:58:52;;;;;;;;;14.00;12.00;25.40;37.70;;;;;;5137118;27;11450;-63
2022/04/22 13:01:37;;;;;;;;;12.25;12.25;26.20;36.40;;;;;;5137256;27;8819;-63
2022/04/22 13:04:04;;;;;;;;;15.50;14.50;28.00;33.60;;;;;;5131699;27;11535;-64
2022/04/22 13:06:39;;;;;;;;;11.00;11.00;26.60;34.50;;;;;;5108505;27;11442;-63
2022/04/22 13:09:06;;;;;;;;;10.50;10.50;24.90;36.10;;;;;;5105325;28;11450;-63
2022/04/22 13:11:32;;;;;;;;;12.50;10.75;24.10;37.90;;;;;;5113595;27;11574;-64
2022/04/22 13:13:58;;;;;;;;;17.00;14.00;23.70;38.70;;;;;;5112518;28;11354;-63
2022/04/22 13:16:24;;;;;;;;;15.67;15.67;23.60;39.30;;;;;;5126740;27;11464;-62
2022/04/22 13:18:49;;;;;;;;;15.67;15.67;23.50;39.60;;;;;;5126132;27;8786;-62
2022/04/22 13:21:15;;;;;;;;;18.67;15.33;23.50;40.40;;;;;;5115849;28;8789;-63
2022/04/22 13:23:41;;;;;;;;;16.33;16.00;23.40;40.00;;;;;;5111294;27;8830;-62
2022/04/22 13:26:06;;;;;;;;;14.33;13.33;23.40;40.10;;;;;;5113962;27;8774;-64
2022/04/22 13:28:32;;;;;;;;;16.33;16.33;23.30;40.20;;;;;;5108153;28;8791;-64
2022/04/22 13:30:59;;;;;;;;;13.33;13.33;23.30;40.50;;;;;;5115368;27;8763;-64
2022/04/22 13:33:25;;;;;;;;;28.67;28.67;23.40;40.90;;;;;;5106635;28;8760;-63
2022/04/22 13:35:52;;;;;;;;;26.67;25.67;23.40;40.70;;;;;;5114223;28;8822;-64
2022/04/22 13:38:18;;;;;;;;;21.67;20.33;23.30;44.60;;;;;;5110604;28;8874;-63
2022/04/22 13:40:43;;;;;;;;;23.33;23.00;23.00;45.20;;;;;;5111458;28;8751;-64
2022/04/22 13:43:09;;;;;;;;;20.00;20.00;22.90;45.30;;;;;;5108652;28;8754;-73
2022/04/22 13:53:47;;;;;;;;;20.67;18.00;22.60;45.20;;;;;;5115377;28;8726;-64
2022/04/22 13:56:13;;;;;;;;;21.33;18.00;22.60;44.00;;;;;;5114479;28;9507;-66